AirNav   Pilot Hours Calculator
 
 1199 users online  

2AR5 Ashmore Field Airport
Centerton, Arkansas, USA

GOING TO CENTERTON?


FAA INFORMATION EFFECTIVE 25 MARCH 2021

Location

FAA Identifier: 2AR5
Lat/Long: 36-22-59.0000N 094-17-38.0000W
36-22.983333N 094-17.633333W
36.3830556,-94.2938889
(estimated)
Elevation: 1362 ft. / 415 m (estimated)
Variation: 04E (1995)
From city: 12 miles NW of CENTERTON, AR
Time zone: UTC -5 (UTC -6 during Standard Time)
Zip code: 72719

Airport Operations

Airport use: Private use. Permission required prior to landing
Activation date: 11/1998
Control tower: no
ARTCC: MEMPHIS CENTER
FSS: JONESBORO FLIGHT SERVICE STATION
Attendance: UNATNDD
Wind indicator: yes
Segmented circle: no

Airport Communications

WX AWOS-3PT at VBT (4 nm SE): 134.975 (479-273-9198)
WX ASOS at XNA (6 nm S): 119.425 (479-203-0109)
WX AWOS-3PT at ROG (9 nm E): 134.375 (479-631-9196)
WX AWOS-3PT at SLG (15 nm SW): 118.375 (479-524-9893)
WX AWOS-3 at ASG (15 nm SE): 124.675 (479-750-2967)

Nearby radio navigation aids

VOR radial/distance  VOR name  Freq  Var
RZCr311/11.7RAZORBACK VORTAC116.4004E
EOSr159/28.4NEOSHO VOR/DME117.3007E

 
NDB name  Hdg/Dist  Freq  Var  ID
SILOAM SPRINGS035/15.028404ESLG ... .-.. --.

Airport Services

Runway Information

Runway 7/25

Dimensions: 1100 x 50 ft. / 335 x 15 m
Surface: turf
RUNWAY 7  RUNWAY 25
Traffic pattern: leftleft
Obstructions: none35 ft. pline, marked, 30 ft. from runway
POWERLINES MKD WITH 24 INCH ORANGE BALLS.

Airport Ownership and Management from official FAA records

Ownership: Privately-owned
Owner: LANCE ASHMORE
10911 GAMBLE ROAD
CENTERTON, AR 72719-8916
Phone 479-685-6268
Manager: LANCE ASHMORE
10911 GAMBLE ROAD
CENTERTON, AR 72719-8916
Phone 479-685-6268

Airport Operational Statistics

Aircraft based on the field: 2
Single engine airplanes: 2
    

Additional Remarks

FOR CD CTC RAZORBACK APCH 479-649-2416, WHEN APCH CLSD CTC MEMPHIS ARTCC AT 901-368-8453.

Instrument Procedures

There are no published instrument procedures at 2AR5.

Some nearby airports with instrument procedures:

KVBT - Bentonville Municipal Airport/Louise M Thaden Field (4 nm SE)
KXNA - Northwest Arkansas National Airport (6 nm S)
5M5 - Crystal Lake Airport (8 nm W)
KROG - Rogers Executive Airport - Carter Field (9 nm E)
KSLG - Smith Field Airport (15 nm SW)
KASG - Springdale Municipal Airport (15 nm SE)
 
Loc | Ops | Rwys | IFR | FBO | Links
Com | Nav | Svcs | Stats | Notes
Area around 2AR5 (Ashmore Field Airport)
 
Road maps at: MapQuest Bing Google
 
Aerial photo
No photo
 
Sectional chart

 
Airport distance calculator
Flying to Ashmore Field Airport? Find the distance to fly.

From to 2AR5

Sunrise and sunset
Times for 12-Apr-2021
 Local
(UTC-5)
 Zulu
(UTC)
Morning civil twilight06:2211:22
Sunrise06:4911:49
Sunset19:4700:47
Evening civil twilight20:1401:14

Current date and time
Zulu (UTC)  12-Apr-2021 22:29:37
Local (UTC-5)  12-Apr-2021 17:29:37
 
METAR
KVBT 
4nm SE 
122156Z AUTO 01013G22KT 10SM BKN080 21/08 A2990 RMK AO2 SLP123 T02110078 TSNO
KXNA 
6nm S 
122153Z 35014KT 10SM SCT080 21/08 A2988 RMK AO2 SLP111 T02060083
KROG 
10nm E 
122158Z 02011KT 10SM BKN085 21/07 A2990 RMK AO2 SLP115 T02060072
KSLG 
14nm SW 
122156Z AUTO 36013KT 10SM CLR 21/09 A2989 RMK AO2 SLP116 T02060094 TSNO
KASG 
16nm SE 
122148Z 02006KT 10SM FEW085 22/09 A2988
TAF
KXNA 
6nm S 
121720Z 1218/1318 02009KT P6SM SCT150 FM122000 02010G19KT P6SM BKN090 FM130200 02012KT 6SM -SHRA BKN050 TEMPO 1304/1308 3SM -TSRA BKN050CB FM131200 05012KT P6SM BKN040
KROG 
10nm E 
121720Z 1218/1318 02009G18KT P6SM SCT150 FM122100 02010G19KT P6SM BKN090 FM130200 02012KT 6SM -SHRA BKN050 TEMPO 1304/1308 3SM -TSRA BKN040CB FM131200 05012KT P6SM BKN040
NOTAMs
Click for the latest NOTAMs
NOTAMs are issued by the DoD/FAA and will open in a separate window not controlled by AirNav.

 

 
 

Would you like to see your business listed on this page?

 If your business provides an interesting product or service to pilots, flight crews, aircraft, or users of the Ashmore Field Airport, you should consider listing it here.  To start the listing process, click on the button below
 
Add a business
 

Other Pages about Ashmore Field Airport

Update a link
 
Copyright © AirNav, LLC. All rights reserved. Privacy Policy  Contact